<?xml version="1.0" encoding="UTF-8" standalone="no" ?>
<gpx xmlns="http://www.topografix.com/GPX/1/1" xmlns:xsi="http://www.w3.org/2001/XMLSchema-instance" xsi:schemaLocation="http://www.topografix.com/GPX/1/1 http://www.topografix.com/GPX/1/1/gpx.xsd" version="1.1" creator="VisuGPX - https://www.visugpx.com">
  <metadata>
    <name>RSPFY-Tour de la plaine de la Madeleine</name>
    <desc><![CDATA[boucle depuis Chevreuse passant par le château de la Madeleine, la forêt du Claireau, la vallée du Rhodon et retour sur Chevreuse par le chemin Jean Racine.]]></desc>
  </metadata>
  <trk>
    <name><![CDATA[2020-05-28 09:09]]></name>
    <desc><![CDATA[<p>Heure de départ: 09:09 28 mai 2020<br/>Heure d'arrivée: 11:39 28 mai 2020<br/>Distance: 11,8 km (02:29)<br/>Temps déplacement: 02:14<br/>Vitesse moyenne: 4,74 km/h<br/>Vitesse moyenne mouv.: 5,26 km/h<br/>Vitesse Max.: 7,86 km/h<br/>Altitude minimale: 76 m<br/>Altitude maximale: 188 m<br/>Vitesse de montée: 315,6 m/h<br/>Vitesse de descente: -371,9 m/h<br/>Gain d'altitude: 408 m<br/>Perte d'altitude: -412 m<br/>Temps de montée: 01:17<br/>Temps de descente: 01:06<br/></p><hr align="center" width="480" style="height: 2px; width: 517px"/>]]></desc>
    <trkseg>
      <trkpt lat="48.70583" lon="2.03958">
        <ele>79</ele>
        <time>2020-05-28T07:09:50Z</time>
      </trkpt>
      <trkpt lat="48.70601" lon="2.03952">
        <ele>79</ele>
        <time>2020-05-28T07:10:41Z</time>
      </trkpt>
      <trkpt lat="48.70619" lon="2.0395">
        <ele>79</ele>
        <time>2020-05-28T07:10:55Z</time>
      </trkpt>
      <trkpt lat="48.70638" lon="2.03953">
        <ele>80</ele>
        <time>2020-05-28T07:11:14Z</time>
      </trkpt>
      <trkpt lat="48.70654" lon="2.03966">
        <ele>80</ele>
        <time>2020-05-28T07:11:29Z</time>
      </trkpt>
      <trkpt lat="48.70672" lon="2.03977">
        <ele>82</ele>
        <time>2020-05-28T07:11:42Z</time>
      </trkpt>
      <trkpt lat="48.7069" lon="2.03974">
        <ele>82</ele>
        <time>2020-05-28T07:11:55Z</time>
      </trkpt>
      <trkpt lat="48.70708" lon="2.03966">
        <ele>83</ele>
        <time>2020-05-28T07:12:08Z</time>
      </trkpt>
      <trkpt lat="48.70725" lon="2.03955">
        <ele>84</ele>
        <time>2020-05-28T07:12:21Z</time>
      </trkpt>
      <trkpt lat="48.7074" lon="2.03939">
        <ele>84</ele>
        <time>2020-05-28T07:12:38Z</time>
      </trkpt>
      <trkpt lat="48.7075" lon="2.03962">
        <ele>84</ele>
        <time>2020-05-28T07:12:52Z</time>
      </trkpt>
      <trkpt lat="48.70776" lon="2.03975">
        <ele>88</ele>
        <time>2020-05-28T07:13:16Z</time>
      </trkpt>
      <trkpt lat="48.70786" lon="2.03948">
        <ele>88</ele>
        <time>2020-05-28T07:13:40Z</time>
      </trkpt>
      <trkpt lat="48.70804" lon="2.03938">
        <ele>89</ele>
        <time>2020-05-28T07:13:49Z</time>
      </trkpt>
      <trkpt lat="48.70823" lon="2.03937">
        <ele>89</ele>
        <time>2020-05-28T07:14:02Z</time>
      </trkpt>
      <trkpt lat="48.70836" lon="2.03958">
        <ele>94</ele>
        <time>2020-05-28T07:14:17Z</time>
      </trkpt>
      <trkpt lat="48.70853" lon="2.0397">
        <ele>95</ele>
        <time>2020-05-28T07:14:33Z</time>
      </trkpt>
      <trkpt lat="48.70864" lon="2.03992">
        <ele>95</ele>
        <time>2020-05-28T07:14:56Z</time>
      </trkpt>
      <trkpt lat="48.70876" lon="2.04013">
        <ele>99</ele>
        <time>2020-05-28T07:15:12Z</time>
      </trkpt>
      <trkpt lat="48.70894" lon="2.04022">
        <ele>101</ele>
        <time>2020-05-28T07:15:33Z</time>
      </trkpt>
      <trkpt lat="48.70901" lon="2.04047">
        <ele>102</ele>
        <time>2020-05-28T07:15:51Z</time>
      </trkpt>
      <trkpt lat="48.70896" lon="2.04075">
        <ele>104</ele>
        <time>2020-05-28T07:16:09Z</time>
      </trkpt>
      <trkpt lat="48.70905" lon="2.04099">
        <ele>108</ele>
        <time>2020-05-28T07:16:25Z</time>
      </trkpt>
      <trkpt lat="48.70908" lon="2.04128">
        <ele>109</ele>
        <time>2020-05-28T07:16:43Z</time>
      </trkpt>
      <trkpt lat="48.70908" lon="2.04156">
        <ele>113</ele>
        <time>2020-05-28T07:17:01Z</time>
      </trkpt>
      <trkpt lat="48.7091" lon="2.04185">
        <ele>114</ele>
        <time>2020-05-28T07:17:19Z</time>
      </trkpt>
      <trkpt lat="48.70916" lon="2.04211">
        <ele>113</ele>
        <time>2020-05-28T07:17:34Z</time>
      </trkpt>
      <trkpt lat="48.70927" lon="2.04189">
        <ele>128</ele>
        <time>2020-05-28T07:18:33Z</time>
      </trkpt>
      <trkpt lat="48.70945" lon="2.04191">
        <ele>131</ele>
        <time>2020-05-28T07:19:04Z</time>
      </trkpt>
      <trkpt lat="48.70951" lon="2.04217">
        <ele>132</ele>
        <time>2020-05-28T07:19:26Z</time>
      </trkpt>
      <trkpt lat="48.7096" lon="2.04192">
        <ele>134</ele>
        <time>2020-05-28T07:19:55Z</time>
      </trkpt>
      <trkpt lat="48.70967" lon="2.04167">
        <ele>135</ele>
        <time>2020-05-28T07:20:14Z</time>
      </trkpt>
      <trkpt lat="48.70985" lon="2.0416">
        <ele>137</ele>
        <time>2020-05-28T07:20:31Z</time>
      </trkpt>
      <trkpt lat="48.71003" lon="2.04159">
        <ele>146</ele>
        <time>2020-05-28T07:20:51Z</time>
      </trkpt>
      <trkpt lat="48.71016" lon="2.0414">
        <ele>145</ele>
        <time>2020-05-28T07:21:45Z</time>
      </trkpt>
      <trkpt lat="48.71033" lon="2.04126">
        <ele>145</ele>
        <time>2020-05-28T07:22:03Z</time>
      </trkpt>
      <trkpt lat="48.71051" lon="2.04116">
        <ele>145</ele>
        <time>2020-05-28T07:22:17Z</time>
      </trkpt>
      <trkpt lat="48.71068" lon="2.04127">
        <ele>147</ele>
        <time>2020-05-28T07:22:34Z</time>
      </trkpt>
      <trkpt lat="48.71085" lon="2.04139">
        <ele>154</ele>
        <time>2020-05-28T07:22:50Z</time>
      </trkpt>
      <trkpt lat="48.71104" lon="2.04141">
        <ele>154</ele>
        <time>2020-05-28T07:23:02Z</time>
      </trkpt>
      <trkpt lat="48.7112" lon="2.04154">
        <ele>154</ele>
        <time>2020-05-28T07:23:13Z</time>
      </trkpt>
      <trkpt lat="48.7113" lon="2.04178">
        <ele>156</ele>
        <time>2020-05-28T07:23:26Z</time>
      </trkpt>
      <trkpt lat="48.71139" lon="2.04201">
        <ele>156</ele>
        <time>2020-05-28T07:23:38Z</time>
      </trkpt>
      <trkpt lat="48.71148" lon="2.04227">
        <ele>156</ele>
        <time>2020-05-28T07:23:50Z</time>
      </trkpt>
      <trkpt lat="48.71153" lon="2.04254">
        <ele>156</ele>
        <time>2020-05-28T07:24:02Z</time>
      </trkpt>
      <trkpt lat="48.71156" lon="2.04281">
        <ele>156</ele>
        <time>2020-05-28T07:24:14Z</time>
      </trkpt>
      <trkpt lat="48.7116" lon="2.04309">
        <ele>156</ele>
        <time>2020-05-28T07:24:26Z</time>
      </trkpt>
      <trkpt lat="48.71168" lon="2.04334">
        <ele>158</ele>
        <time>2020-05-28T07:24:38Z</time>
      </trkpt>
      <trkpt lat="48.71168" lon="2.04363">
        <ele>159</ele>
        <time>2020-05-28T07:24:51Z</time>
      </trkpt>
      <trkpt lat="48.71168" lon="2.04391">
        <ele>159</ele>
        <time>2020-05-28T07:25:02Z</time>
      </trkpt>
      <trkpt lat="48.71166" lon="2.0442">
        <ele>158</ele>
        <time>2020-05-28T07:25:14Z</time>
      </trkpt>
      <trkpt lat="48.71165" lon="2.04449">
        <ele>156</ele>
        <time>2020-05-28T07:25:27Z</time>
      </trkpt>
      <trkpt lat="48.71164" lon="2.04478">
        <ele>157</ele>
        <time>2020-05-28T07:25:40Z</time>
      </trkpt>
      <trkpt lat="48.71163" lon="2.04507">
        <ele>158</ele>
        <time>2020-05-28T07:25:53Z</time>
      </trkpt>
      <trkpt lat="48.71161" lon="2.04534">
        <ele>157</ele>
        <time>2020-05-28T07:26:05Z</time>
      </trkpt>
      <trkpt lat="48.71161" lon="2.04563">
        <ele>158</ele>
        <time>2020-05-28T07:26:17Z</time>
      </trkpt>
      <trkpt lat="48.7116" lon="2.04591">
        <ele>160</ele>
        <time>2020-05-28T07:26:29Z</time>
      </trkpt>
      <trkpt lat="48.71159" lon="2.04619">
        <ele>161</ele>
        <time>2020-05-28T07:26:42Z</time>
      </trkpt>
      <trkpt lat="48.7116" lon="2.04648">
        <ele>163</ele>
        <time>2020-05-28T07:26:56Z</time>
      </trkpt>
      <trkpt lat="48.71164" lon="2.04676">
        <ele>167</ele>
        <time>2020-05-28T07:27:08Z</time>
      </trkpt>
      <trkpt lat="48.71172" lon="2.04702">
        <ele>168</ele>
        <time>2020-05-28T07:27:21Z</time>
      </trkpt>
      <trkpt lat="48.71157" lon="2.04722">
        <ele>168</ele>
        <time>2020-05-28T07:27:35Z</time>
      </trkpt>
      <trkpt lat="48.71142" lon="2.04737">
        <ele>168</ele>
        <time>2020-05-28T07:27:51Z</time>
      </trkpt>
      <trkpt lat="48.71127" lon="2.04755">
        <ele>168</ele>
        <time>2020-05-28T07:28:05Z</time>
      </trkpt>
      <trkpt lat="48.71112" lon="2.0477">
        <ele>168</ele>
        <time>2020-05-28T07:28:18Z</time>
      </trkpt>
      <trkpt lat="48.71096" lon="2.04786">
        <ele>167</ele>
        <time>2020-05-28T07:28:33Z</time>
      </trkpt>
      <trkpt lat="48.71083" lon="2.04807">
        <ele>159</ele>
        <time>2020-05-28T07:28:48Z</time>
      </trkpt>
      <trkpt lat="48.71069" lon="2.04827">
        <ele>159</ele>
        <time>2020-05-28T07:29:00Z</time>
      </trkpt>
      <trkpt lat="48.71053" lon="2.04844">
        <ele>158</ele>
        <time>2020-05-28T07:29:12Z</time>
      </trkpt>
      <trkpt lat="48.71037" lon="2.04859">
        <ele>157</ele>
        <time>2020-05-28T07:29:25Z</time>
      </trkpt>
      <trkpt lat="48.71024" lon="2.0488">
        <ele>156</ele>
        <time>2020-05-28T07:29:37Z</time>
      </trkpt>
      <trkpt lat="48.71013" lon="2.04902">
        <ele>156</ele>
        <time>2020-05-28T07:29:49Z</time>
      </trkpt>
      <trkpt lat="48.71003" lon="2.04927">
        <ele>158</ele>
        <time>2020-05-28T07:30:00Z</time>
      </trkpt>
      <trkpt lat="48.70994" lon="2.04953">
        <ele>149</ele>
        <time>2020-05-28T07:30:11Z</time>
      </trkpt>
      <trkpt lat="48.70986" lon="2.04978">
        <ele>151</ele>
        <time>2020-05-28T07:30:25Z</time>
      </trkpt>
      <trkpt lat="48.70978" lon="2.05004">
        <ele>154</ele>
        <time>2020-05-28T07:30:39Z</time>
      </trkpt>
      <trkpt lat="48.70968" lon="2.0503">
        <ele>152</ele>
        <time>2020-05-28T07:30:50Z</time>
      </trkpt>
      <trkpt lat="48.70961" lon="2.05055">
        <ele>152</ele>
        <time>2020-05-28T07:31:03Z</time>
      </trkpt>
      <trkpt lat="48.7095" lon="2.05079">
        <ele>151</ele>
        <time>2020-05-28T07:31:17Z</time>
      </trkpt>
      <trkpt lat="48.7094" lon="2.05102">
        <ele>154</ele>
        <time>2020-05-28T07:31:30Z</time>
      </trkpt>
      <trkpt lat="48.70933" lon="2.05129">
        <ele>155</ele>
        <time>2020-05-28T07:31:43Z</time>
      </trkpt>
      <trkpt lat="48.70925" lon="2.05156">
        <ele>155</ele>
        <time>2020-05-28T07:31:57Z</time>
      </trkpt>
      <trkpt lat="48.70918" lon="2.05181">
        <ele>157</ele>
        <time>2020-05-28T07:32:09Z</time>
      </trkpt>
      <trkpt lat="48.70911" lon="2.05207">
        <ele>147</ele>
        <time>2020-05-28T07:32:22Z</time>
      </trkpt>
      <trkpt lat="48.70904" lon="2.05232">
        <ele>150</ele>
        <time>2020-05-28T07:32:35Z</time>
      </trkpt>
      <trkpt lat="48.709" lon="2.05259">
        <ele>154</ele>
        <time>2020-05-28T07:32:49Z</time>
      </trkpt>
      <trkpt lat="48.70894" lon="2.05286">
        <ele>151</ele>
        <time>2020-05-28T07:33:01Z</time>
      </trkpt>
      <trkpt lat="48.70886" lon="2.05313">
        <ele>152</ele>
        <time>2020-05-28T07:33:14Z</time>
      </trkpt>
      <trkpt lat="48.7088" lon="2.05339">
        <ele>154</ele>
        <time>2020-05-28T07:33:25Z</time>
      </trkpt>
      <trkpt lat="48.70876" lon="2.05365">
        <ele>153</ele>
        <time>2020-05-28T07:33:36Z</time>
      </trkpt>
      <trkpt lat="48.70869" lon="2.05392">
        <ele>153</ele>
        <time>2020-05-28T07:33:50Z</time>
      </trkpt>
      <trkpt lat="48.70865" lon="2.05419">
        <ele>154</ele>
        <time>2020-05-28T07:34:01Z</time>
      </trkpt>
      <trkpt lat="48.70862" lon="2.05447">
        <ele>155</ele>
        <time>2020-05-28T07:34:15Z</time>
      </trkpt>
      <trkpt lat="48.70853" lon="2.05472">
        <ele>154</ele>
        <time>2020-05-28T07:34:30Z</time>
      </trkpt>
      <trkpt lat="48.70847" lon="2.05498">
        <ele>153</ele>
        <time>2020-05-28T07:34:47Z</time>
      </trkpt>
      <trkpt lat="48.70845" lon="2.05525">
        <ele>156</ele>
        <time>2020-05-28T07:35:00Z</time>
      </trkpt>
      <trkpt lat="48.7084" lon="2.05553">
        <ele>156</ele>
        <time>2020-05-28T07:35:14Z</time>
      </trkpt>
      <trkpt lat="48.70839" lon="2.0558">
        <ele>155</ele>
        <time>2020-05-28T07:35:26Z</time>
      </trkpt>
      <trkpt lat="48.70835" lon="2.05609">
        <ele>158</ele>
        <time>2020-05-28T07:35:44Z</time>
      </trkpt>
      <trkpt lat="48.7083" lon="2.05636">
        <ele>147</ele>
        <time>2020-05-28T07:35:58Z</time>
      </trkpt>
      <trkpt lat="48.70832" lon="2.05664">
        <ele>155</ele>
        <time>2020-05-28T07:36:14Z</time>
      </trkpt>
      <trkpt lat="48.70827" lon="2.05691">
        <ele>150</ele>
        <time>2020-05-28T07:36:32Z</time>
      </trkpt>
      <trkpt lat="48.70817" lon="2.05715">
        <ele>149</ele>
        <time>2020-05-28T07:36:51Z</time>
      </trkpt>
      <trkpt lat="48.70806" lon="2.05737">
        <ele>149</ele>
        <time>2020-05-28T07:37:05Z</time>
      </trkpt>
      <trkpt lat="48.70799" lon="2.05764">
        <ele>149</ele>
        <time>2020-05-28T07:37:18Z</time>
      </trkpt>
      <trkpt lat="48.70793" lon="2.05789">
        <ele>148</ele>
        <time>2020-05-28T07:37:33Z</time>
      </trkpt>
      <trkpt lat="48.70789" lon="2.05817">
        <ele>148</ele>
        <time>2020-05-28T07:37:48Z</time>
      </trkpt>
      <trkpt lat="48.70783" lon="2.05843">
        <ele>148</ele>
        <time>2020-05-28T07:38:01Z</time>
      </trkpt>
      <trkpt lat="48.70782" lon="2.05871">
        <ele>148</ele>
        <time>2020-05-28T07:38:15Z</time>
      </trkpt>
      <trkpt lat="48.70781" lon="2.05898">
        <ele>148</ele>
        <time>2020-05-28T07:38:34Z</time>
      </trkpt>
      <trkpt lat="48.70789" lon="2.05924">
        <ele>146</ele>
        <time>2020-05-28T07:38:49Z</time>
      </trkpt>
      <trkpt lat="48.70806" lon="2.05936">
        <ele>149</ele>
        <time>2020-05-28T07:39:05Z</time>
      </trkpt>
      <trkpt lat="48.70824" lon="2.05938">
        <ele>152</ele>
        <time>2020-05-28T07:39:16Z</time>
      </trkpt>
      <trkpt lat="48.70843" lon="2.05939">
        <ele>159</ele>
        <time>2020-05-28T07:39:31Z</time>
      </trkpt>
      <trkpt lat="48.70862" lon="2.05937">
        <ele>159</ele>
        <time>2020-05-28T07:39:48Z</time>
      </trkpt>
      <trkpt lat="48.7088" lon="2.05934">
        <ele>160</ele>
        <time>2020-05-28T07:40:03Z</time>
      </trkpt>
      <trkpt lat="48.70898" lon="2.05932">
        <ele>161</ele>
        <time>2020-05-28T07:40:13Z</time>
      </trkpt>
      <trkpt lat="48.70917" lon="2.0593">
        <ele>162</ele>
        <time>2020-05-28T07:40:27Z</time>
      </trkpt>
      <trkpt lat="48.70936" lon="2.05926">
        <ele>161</ele>
        <time>2020-05-28T07:40:40Z</time>
      </trkpt>
      <trkpt lat="48.70955" lon="2.05923">
        <ele>160</ele>
        <time>2020-05-28T07:40:56Z</time>
      </trkpt>
      <trkpt lat="48.70973" lon="2.0592">
        <ele>160</ele>
        <time>2020-05-28T07:41:09Z</time>
      </trkpt>
      <trkpt lat="48.70991" lon="2.05913">
        <ele>164</ele>
        <time>2020-05-28T07:41:22Z</time>
      </trkpt>
      <trkpt lat="48.71008" lon="2.059">
        <ele>163</ele>
        <time>2020-05-28T07:41:37Z</time>
      </trkpt>
      <trkpt lat="48.71025" lon="2.05887">
        <ele>162</ele>
        <time>2020-05-28T07:41:50Z</time>
      </trkpt>
      <trkpt lat="48.71042" lon="2.05875">
        <ele>162</ele>
        <time>2020-05-28T07:42:01Z</time>
      </trkpt>
      <trkpt lat="48.7106" lon="2.05869">
        <ele>162</ele>
        <time>2020-05-28T07:42:15Z</time>
      </trkpt>
      <trkpt lat="48.71078" lon="2.05862">
        <ele>163</ele>
        <time>2020-05-28T07:42:28Z</time>
      </trkpt>
      <trkpt lat="48.71097" lon="2.05857">
        <ele>161</ele>
        <time>2020-05-28T07:42:40Z</time>
      </trkpt>
      <trkpt lat="48.71115" lon="2.05855">
        <ele>160</ele>
        <time>2020-05-28T07:42:52Z</time>
      </trkpt>
      <trkpt lat="48.71133" lon="2.05851">
        <ele>160</ele>
        <time>2020-05-28T07:43:05Z</time>
      </trkpt>
      <trkpt lat="48.71151" lon="2.05842">
        <ele>160</ele>
        <time>2020-05-28T07:43:17Z</time>
      </trkpt>
      <trkpt lat="48.7117" lon="2.05839">
        <ele>161</ele>
        <time>2020-05-28T07:43:30Z</time>
      </trkpt>
      <trkpt lat="48.71188" lon="2.05834">
        <ele>160</ele>
        <time>2020-05-28T07:43:43Z</time>
      </trkpt>
      <trkpt lat="48.71206" lon="2.05829">
        <ele>164</ele>
        <time>2020-05-28T07:43:55Z</time>
      </trkpt>
      <trkpt lat="48.71225" lon="2.05824">
        <ele>164</ele>
        <time>2020-05-28T07:44:09Z</time>
      </trkpt>
      <trkpt lat="48.71243" lon="2.0582">
        <ele>164</ele>
        <time>2020-05-28T07:44:20Z</time>
      </trkpt>
      <trkpt lat="48.71261" lon="2.05813">
        <ele>163</ele>
        <time>2020-05-28T07:44:34Z</time>
      </trkpt>
      <trkpt lat="48.71279" lon="2.05804">
        <ele>163</ele>
        <time>2020-05-28T07:44:47Z</time>
      </trkpt>
      <trkpt lat="48.71296" lon="2.05791">
        <ele>163</ele>
        <time>2020-05-28T07:44:59Z</time>
      </trkpt>
      <trkpt lat="48.71313" lon="2.05779">
        <ele>163</ele>
        <time>2020-05-28T07:45:12Z</time>
      </trkpt>
      <trkpt lat="48.71329" lon="2.05764">
        <ele>164</ele>
        <time>2020-05-28T07:45:26Z</time>
      </trkpt>
      <trkpt lat="48.71347" lon="2.0576">
        <ele>161</ele>
        <time>2020-05-28T07:45:40Z</time>
      </trkpt>
      <trkpt lat="48.71366" lon="2.05751">
        <ele>160</ele>
        <time>2020-05-28T07:45:52Z</time>
      </trkpt>
      <trkpt lat="48.71384" lon="2.05756">
        <ele>159</ele>
        <time>2020-05-28T07:46:07Z</time>
      </trkpt>
      <trkpt lat="48.71402" lon="2.05758">
        <ele>159</ele>
        <time>2020-05-28T07:46:21Z</time>
      </trkpt>
      <trkpt lat="48.7142" lon="2.0575">
        <ele>160</ele>
        <time>2020-05-28T07:46:35Z</time>
      </trkpt>
      <trkpt lat="48.71437" lon="2.05739">
        <ele>161</ele>
        <time>2020-05-28T07:46:51Z</time>
      </trkpt>
      <trkpt lat="48.71445" lon="2.05714">
        <ele>161</ele>
        <time>2020-05-28T07:47:09Z</time>
      </trkpt>
      <trkpt lat="48.71446" lon="2.05686">
        <ele>162</ele>
        <time>2020-05-28T07:47:50Z</time>
      </trkpt>
      <trkpt lat="48.71447" lon="2.05658">
        <ele>165</ele>
        <time>2020-05-28T07:48:11Z</time>
      </trkpt>
      <trkpt lat="48.71446" lon="2.05629">
        <ele>166</ele>
        <time>2020-05-28T07:48:24Z</time>
      </trkpt>
      <trkpt lat="48.71439" lon="2.05602">
        <ele>167</ele>
        <time>2020-05-28T07:48:38Z</time>
      </trkpt>
      <trkpt lat="48.71435" lon="2.05575">
        <ele>170</ele>
        <time>2020-05-28T07:48:52Z</time>
      </trkpt>
      <trkpt lat="48.71444" lon="2.0555">
        <ele>170</ele>
        <time>2020-05-28T07:49:09Z</time>
      </trkpt>
      <trkpt lat="48.71453" lon="2.05525">
        <ele>170</ele>
        <time>2020-05-28T07:49:23Z</time>
      </trkpt>
      <trkpt lat="48.71465" lon="2.05505">
        <ele>170</ele>
        <time>2020-05-28T07:49:37Z</time>
      </trkpt>
      <trkpt lat="48.71473" lon="2.0548">
        <ele>172</ele>
        <time>2020-05-28T07:49:58Z</time>
      </trkpt>
      <trkpt lat="48.71484" lon="2.05458">
        <ele>173</ele>
        <time>2020-05-28T07:50:11Z</time>
      </trkpt>
      <trkpt lat="48.71495" lon="2.05435">
        <ele>173</ele>
        <time>2020-05-28T07:50:24Z</time>
      </trkpt>
      <trkpt lat="48.71505" lon="2.0541">
        <ele>173</ele>
        <time>2020-05-28T07:50:38Z</time>
      </trkpt>
      <trkpt lat="48.71515" lon="2.05386">
        <ele>172</ele>
        <time>2020-05-28T07:50:51Z</time>
      </trkpt>
      <trkpt lat="48.71527" lon="2.05363">
        <ele>171</ele>
        <time>2020-05-28T07:51:03Z</time>
      </trkpt>
      <trkpt lat="48.71541" lon="2.05344">
        <ele>171</ele>
        <time>2020-05-28T07:51:15Z</time>
      </trkpt>
      <trkpt lat="48.71559" lon="2.05335">
        <ele>171</ele>
        <time>2020-05-28T07:51:27Z</time>
      </trkpt>
      <trkpt lat="48.71576" lon="2.0532">
        <ele>170</ele>
        <time>2020-05-28T07:51:38Z</time>
      </trkpt>
      <trkpt lat="48.71594" lon="2.05309">
        <ele>167</ele>
        <time>2020-05-28T07:51:49Z</time>
      </trkpt>
      <trkpt lat="48.71612" lon="2.05295">
        <ele>166</ele>
        <time>2020-05-28T07:52:01Z</time>
      </trkpt>
      <trkpt lat="48.71629" lon="2.05286">
        <ele>165</ele>
        <time>2020-05-28T07:52:13Z</time>
      </trkpt>
      <trkpt lat="48.71647" lon="2.05275">
        <ele>164</ele>
        <time>2020-05-28T07:52:24Z</time>
      </trkpt>
      <trkpt lat="48.71664" lon="2.05265">
        <ele>164</ele>
        <time>2020-05-28T07:52:34Z</time>
      </trkpt>
      <trkpt lat="48.71682" lon="2.0526">
        <ele>160</ele>
        <time>2020-05-28T07:52:45Z</time>
      </trkpt>
      <trkpt lat="48.717" lon="2.05254">
        <ele>159</ele>
        <time>2020-05-28T07:52:58Z</time>
      </trkpt>
      <trkpt lat="48.7172" lon="2.05252">
        <ele>159</ele>
        <time>2020-05-28T07:53:09Z</time>
      </trkpt>
      <trkpt lat="48.71738" lon="2.05248">
        <ele>160</ele>
        <time>2020-05-28T07:53:21Z</time>
      </trkpt>
      <trkpt lat="48.71757" lon="2.05247">
        <ele>160</ele>
        <time>2020-05-28T07:53:32Z</time>
      </trkpt>
      <trkpt lat="48.71776" lon="2.05241">
        <ele>161</ele>
        <time>2020-05-28T07:53:45Z</time>
      </trkpt>
      <trkpt lat="48.71793" lon="2.05235">
        <ele>162</ele>
        <time>2020-05-28T07:53:58Z</time>
      </trkpt>
      <trkpt lat="48.71812" lon="2.0523">
        <ele>162</ele>
        <time>2020-05-28T07:54:12Z</time>
      </trkpt>
      <trkpt lat="48.7183" lon="2.05233">
        <ele>163</ele>
        <time>2020-05-28T07:54:24Z</time>
      </trkpt>
      <trkpt lat="48.71849" lon="2.0524">
        <ele>164</ele>
        <time>2020-05-28T07:54:36Z</time>
      </trkpt>
      <trkpt lat="48.71867" lon="2.0525">
        <ele>163</ele>
        <time>2020-05-28T07:54:48Z</time>
      </trkpt>
      <trkpt lat="48.71884" lon="2.05257">
        <ele>162</ele>
        <time>2020-05-28T07:54:59Z</time>
      </trkpt>
      <trkpt lat="48.71904" lon="2.0526">
        <ele>161</ele>
        <time>2020-05-28T07:55:10Z</time>
      </trkpt>
      <trkpt lat="48.71923" lon="2.05261">
        <ele>162</ele>
        <time>2020-05-28T07:55:21Z</time>
      </trkpt>
      <trkpt lat="48.71941" lon="2.05267">
        <ele>162</ele>
        <time>2020-05-28T07:56:12Z</time>
      </trkpt>
      <trkpt lat="48.71955" lon="2.05283">
        <ele>163</ele>
        <time>2020-05-28T07:56:26Z</time>
      </trkpt>
      <trkpt lat="48.71969" lon="2.05302">
        <ele>163</ele>
        <time>2020-05-28T07:56:41Z</time>
      </trkpt>
      <trkpt lat="48.71983" lon="2.05321">
        <ele>163</ele>
        <time>2020-05-28T07:56:58Z</time>
      </trkpt>
      <trkpt lat="48.71998" lon="2.05335">
        <ele>163</ele>
        <time>2020-05-28T07:57:12Z</time>
      </trkpt>
      <trkpt lat="48.72015" lon="2.05349">
        <ele>161</ele>
        <time>2020-05-28T07:57:26Z</time>
      </trkpt>
      <trkpt lat="48.72029" lon="2.05367">
        <ele>160</ele>
        <time>2020-05-28T07:57:43Z</time>
      </trkpt>
      <trkpt lat="48.72041" lon="2.0539">
        <ele>159</ele>
        <time>2020-05-28T07:57:58Z</time>
      </trkpt>
      <trkpt lat="48.72052" lon="2.05412">
        <ele>159</ele>
        <time>2020-05-28T07:58:25Z</time>
      </trkpt>
      <trkpt lat="48.72067" lon="2.05428">
        <ele>153</ele>
        <time>2020-05-28T07:59:13Z</time>
      </trkpt>
      <trkpt lat="48.72083" lon="2.05442">
        <ele>148</ele>
        <time>2020-05-28T07:59:25Z</time>
      </trkpt>
      <trkpt lat="48.72099" lon="2.05457">
        <ele>145</ele>
        <time>2020-05-28T07:59:39Z</time>
      </trkpt>
      <trkpt lat="48.72115" lon="2.05471">
        <ele>143</ele>
        <time>2020-05-28T07:59:53Z</time>
      </trkpt>
      <trkpt lat="48.72134" lon="2.05481">
        <ele>142</ele>
        <time>2020-05-28T08:00:06Z</time>
      </trkpt>
      <trkpt lat="48.72152" lon="2.05481">
        <ele>140</ele>
        <time>2020-05-28T08:00:20Z</time>
      </trkpt>
      <trkpt lat="48.7217" lon="2.05471">
        <ele>133</ele>
        <time>2020-05-28T08:00:34Z</time>
      </trkpt>
      <trkpt lat="48.72183" lon="2.05452">
        <ele>134</ele>
        <time>2020-05-28T08:00:48Z</time>
      </trkpt>
      <trkpt lat="48.72197" lon="2.05435">
        <ele>134</ele>
        <time>2020-05-28T08:01:01Z</time>
      </trkpt>
      <trkpt lat="48.72211" lon="2.05417">
        <ele>132</ele>
        <time>2020-05-28T08:01:14Z</time>
      </trkpt>
      <trkpt lat="48.72227" lon="2.05403">
        <ele>137</ele>
        <time>2020-05-28T08:01:25Z</time>
      </trkpt>
      <trkpt lat="48.72239" lon="2.05382">
        <ele>138</ele>
        <time>2020-05-28T08:01:39Z</time>
      </trkpt>
      <trkpt lat="48.72251" lon="2.05358">
        <ele>129</ele>
        <time>2020-05-28T08:01:52Z</time>
      </trkpt>
      <trkpt lat="48.72264" lon="2.05337">
        <ele>132</ele>
        <time>2020-05-28T08:02:06Z</time>
      </trkpt>
      <trkpt lat="48.72273" lon="2.05311">
        <ele>136</ele>
        <time>2020-05-28T08:02:19Z</time>
      </trkpt>
      <trkpt lat="48.72285" lon="2.05289">
        <ele>136</ele>
        <time>2020-05-28T08:02:31Z</time>
      </trkpt>
      <trkpt lat="48.72297" lon="2.05267">
        <ele>135</ele>
        <time>2020-05-28T08:02:41Z</time>
      </trkpt>
      <trkpt lat="48.72311" lon="2.0525">
        <ele>136</ele>
        <time>2020-05-28T08:02:52Z</time>
      </trkpt>
      <trkpt lat="48.72319" lon="2.05225">
        <ele>137</ele>
        <time>2020-05-28T08:03:06Z</time>
      </trkpt>
      <trkpt lat="48.72318" lon="2.05196">
        <ele>138</ele>
        <time>2020-05-28T08:03:21Z</time>
      </trkpt>
      <trkpt lat="48.72325" lon="2.0517">
        <ele>133</ele>
        <time>2020-05-28T08:03:32Z</time>
      </trkpt>
      <trkpt lat="48.72329" lon="2.05143">
        <ele>135</ele>
        <time>2020-05-28T08:03:42Z</time>
      </trkpt>
      <trkpt lat="48.72328" lon="2.05115">
        <ele>135</ele>
        <time>2020-05-28T08:03:54Z</time>
      </trkpt>
      <trkpt lat="48.72325" lon="2.05087">
        <ele>129</ele>
        <time>2020-05-28T08:04:06Z</time>
      </trkpt>
      <trkpt lat="48.72319" lon="2.05059">
        <ele>129</ele>
        <time>2020-05-28T08:04:19Z</time>
      </trkpt>
      <trkpt lat="48.72311" lon="2.05034">
        <ele>130</ele>
        <time>2020-05-28T08:04:32Z</time>
      </trkpt>
      <trkpt lat="48.72302" lon="2.05011">
        <ele>130</ele>
        <time>2020-05-28T08:04:45Z</time>
      </trkpt>
      <trkpt lat="48.7229" lon="2.0499">
        <ele>128</ele>
        <time>2020-05-28T08:04:58Z</time>
      </trkpt>
      <trkpt lat="48.72279" lon="2.04968">
        <ele>128</ele>
        <time>2020-05-28T08:05:11Z</time>
      </trkpt>
      <trkpt lat="48.72264" lon="2.04951">
        <ele>129</ele>
        <time>2020-05-28T08:05:24Z</time>
      </trkpt>
      <trkpt lat="48.72251" lon="2.0493">
        <ele>131</ele>
        <time>2020-05-28T08:05:40Z</time>
      </trkpt>
      <trkpt lat="48.72245" lon="2.04904">
        <ele>138</ele>
        <time>2020-05-28T08:06:15Z</time>
      </trkpt>
      <trkpt lat="48.72247" lon="2.04876">
        <ele>141</ele>
        <time>2020-05-28T08:06:31Z</time>
      </trkpt>
      <trkpt lat="48.72257" lon="2.04853">
        <ele>130</ele>
        <time>2020-05-28T08:06:59Z</time>
      </trkpt>
      <trkpt lat="48.72256" lon="2.04825">
        <ele>132</ele>
        <time>2020-05-28T08:07:19Z</time>
      </trkpt>
      <trkpt lat="48.72247" lon="2.048">
        <ele>137</ele>
        <time>2020-05-28T08:07:36Z</time>
      </trkpt>
      <trkpt lat="48.72238" lon="2.04776">
        <ele>137</ele>
        <time>2020-05-28T08:07:50Z</time>
      </trkpt>
      <trkpt lat="48.72238" lon="2.04748">
        <ele>133</ele>
        <time>2020-05-28T08:08:06Z</time>
      </trkpt>
      <trkpt lat="48.72232" lon="2.04721">
        <ele>135</ele>
        <time>2020-05-28T08:08:22Z</time>
      </trkpt>
      <trkpt lat="48.72221" lon="2.04697">
        <ele>135</ele>
        <time>2020-05-28T08:09:05Z</time>
      </trkpt>
      <trkpt lat="48.7221" lon="2.04674">
        <ele>136</ele>
        <time>2020-05-28T08:09:23Z</time>
      </trkpt>
      <trkpt lat="48.72204" lon="2.04647">
        <ele>138</ele>
        <time>2020-05-28T08:09:40Z</time>
      </trkpt>
      <trkpt lat="48.72206" lon="2.04618">
        <ele>138</ele>
        <time>2020-05-28T08:09:59Z</time>
      </trkpt>
      <trkpt lat="48.72209" lon="2.0459">
        <ele>138</ele>
        <time>2020-05-28T08:10:14Z</time>
      </trkpt>
      <trkpt lat="48.72204" lon="2.04563">
        <ele>139</ele>
        <time>2020-05-28T08:10:28Z</time>
      </trkpt>
      <trkpt lat="48.72197" lon="2.04536">
        <ele>140</ele>
        <time>2020-05-28T08:10:41Z</time>
      </trkpt>
      <trkpt lat="48.72183" lon="2.04517">
        <ele>142</ele>
        <time>2020-05-28T08:10:53Z</time>
      </trkpt>
      <trkpt lat="48.72176" lon="2.04491">
        <ele>146</ele>
        <time>2020-05-28T08:11:08Z</time>
      </trkpt>
      <trkpt lat="48.72179" lon="2.04463">
        <ele>146</ele>
        <time>2020-05-28T08:11:20Z</time>
      </trkpt>
      <trkpt lat="48.72197" lon="2.04455">
        <ele>145</ele>
        <time>2020-05-28T08:11:39Z</time>
      </trkpt>
      <trkpt lat="48.72216" lon="2.04458">
        <ele>144</ele>
        <time>2020-05-28T08:11:53Z</time>
      </trkpt>
      <trkpt lat="48.72234" lon="2.04456">
        <ele>143</ele>
        <time>2020-05-28T08:12:05Z</time>
      </trkpt>
      <trkpt lat="48.7225" lon="2.04441">
        <ele>144</ele>
        <time>2020-05-28T08:12:19Z</time>
      </trkpt>
      <trkpt lat="48.72265" lon="2.04426">
        <ele>139</ele>
        <time>2020-05-28T08:12:36Z</time>
      </trkpt>
      <trkpt lat="48.72282" lon="2.04414">
        <ele>143</ele>
        <time>2020-05-28T08:12:52Z</time>
      </trkpt>
      <trkpt lat="48.72301" lon="2.04409">
        <ele>141</ele>
        <time>2020-05-28T08:13:07Z</time>
      </trkpt>
      <trkpt lat="48.7232" lon="2.04409">
        <ele>137</ele>
        <time>2020-05-28T08:13:23Z</time>
      </trkpt>
      <trkpt lat="48.72337" lon="2.04401">
        <ele>129</ele>
        <time>2020-05-28T08:13:37Z</time>
      </trkpt>
      <trkpt lat="48.72352" lon="2.04384">
        <ele>126</ele>
        <time>2020-05-28T08:13:56Z</time>
      </trkpt>
      <trkpt lat="48.72359" lon="2.04358">
        <ele>126</ele>
        <time>2020-05-28T08:14:11Z</time>
      </trkpt>
      <trkpt lat="48.7237" lon="2.04335">
        <ele>124</ele>
        <time>2020-05-28T08:14:24Z</time>
      </trkpt>
      <trkpt lat="48.72377" lon="2.04309">
        <ele>126</ele>
        <time>2020-05-28T08:14:38Z</time>
      </trkpt>
      <trkpt lat="48.72384" lon="2.04283">
        <ele>126</ele>
        <time>2020-05-28T08:14:49Z</time>
      </trkpt>
      <trkpt lat="48.72396" lon="2.04264">
        <ele>125</ele>
        <time>2020-05-28T08:15:02Z</time>
      </trkpt>
      <trkpt lat="48.72412" lon="2.04248">
        <ele>124</ele>
        <time>2020-05-28T08:15:15Z</time>
      </trkpt>
      <trkpt lat="48.72428" lon="2.04234">
        <ele>120</ele>
        <time>2020-05-28T08:16:17Z</time>
      </trkpt>
      <trkpt lat="48.72443" lon="2.04217">
        <ele>120</ele>
        <time>2020-05-28T08:16:34Z</time>
      </trkpt>
      <trkpt lat="48.72455" lon="2.04197">
        <ele>121</ele>
        <time>2020-05-28T08:16:47Z</time>
      </trkpt>
      <trkpt lat="48.72466" lon="2.04174">
        <ele>121</ele>
        <time>2020-05-28T08:17:01Z</time>
      </trkpt>
      <trkpt lat="48.7248" lon="2.04157">
        <ele>125</ele>
        <time>2020-05-28T08:17:14Z</time>
      </trkpt>
      <trkpt lat="48.72494" lon="2.0414">
        <ele>126</ele>
        <time>2020-05-28T08:17:29Z</time>
      </trkpt>
      <trkpt lat="48.72512" lon="2.04131">
        <ele>116</ele>
        <time>2020-05-28T08:17:44Z</time>
      </trkpt>
      <trkpt lat="48.72522" lon="2.04107">
        <ele>117</ele>
        <time>2020-05-28T08:18:00Z</time>
      </trkpt>
      <trkpt lat="48.72535" lon="2.04087">
        <ele>117</ele>
        <time>2020-05-28T08:18:17Z</time>
      </trkpt>
      <trkpt lat="48.72549" lon="2.04068">
        <ele>119</ele>
        <time>2020-05-28T08:18:33Z</time>
      </trkpt>
      <trkpt lat="48.72561" lon="2.04047">
        <ele>119</ele>
        <time>2020-05-28T08:18:44Z</time>
      </trkpt>
      <trkpt lat="48.72575" lon="2.04027">
        <ele>118</ele>
        <time>2020-05-28T08:18:56Z</time>
      </trkpt>
      <trkpt lat="48.72586" lon="2.04005">
        <ele>113</ele>
        <time>2020-05-28T08:19:09Z</time>
      </trkpt>
      <trkpt lat="48.726" lon="2.03986">
        <ele>114</ele>
        <time>2020-05-28T08:19:21Z</time>
      </trkpt>
      <trkpt lat="48.7261" lon="2.03962">
        <ele>113</ele>
        <time>2020-05-28T08:19:33Z</time>
      </trkpt>
      <trkpt lat="48.72609" lon="2.03934">
        <ele>115</ele>
        <time>2020-05-28T08:19:49Z</time>
      </trkpt>
      <trkpt lat="48.72604" lon="2.03908">
        <ele>119</ele>
        <time>2020-05-28T08:20:05Z</time>
      </trkpt>
      <trkpt lat="48.72598" lon="2.03882">
        <ele>119</ele>
        <time>2020-05-28T08:20:20Z</time>
      </trkpt>
      <trkpt lat="48.72593" lon="2.03855">
        <ele>121</ele>
        <time>2020-05-28T08:20:36Z</time>
      </trkpt>
      <trkpt lat="48.7261" lon="2.03845">
        <ele>119</ele>
        <time>2020-05-28T08:21:10Z</time>
      </trkpt>
      <trkpt lat="48.72626" lon="2.03858">
        <ele>117</ele>
        <time>2020-05-28T08:22:17Z</time>
      </trkpt>
      <trkpt lat="48.72641" lon="2.03875">
        <ele>115</ele>
        <time>2020-05-28T08:22:33Z</time>
      </trkpt>
      <trkpt lat="48.72657" lon="2.03892">
        <ele>113</ele>
        <time>2020-05-28T08:22:48Z</time>
      </trkpt>
      <trkpt lat="48.72671" lon="2.03912">
        <ele>107</ele>
        <time>2020-05-28T08:23:01Z</time>
      </trkpt>
      <trkpt lat="48.72682" lon="2.03935">
        <ele>104</ele>
        <time>2020-05-28T08:23:12Z</time>
      </trkpt>
      <trkpt lat="48.72691" lon="2.03959">
        <ele>103</ele>
        <time>2020-05-28T08:23:23Z</time>
      </trkpt>
      <trkpt lat="48.72691" lon="2.03988">
        <ele>102</ele>
        <time>2020-05-28T08:23:33Z</time>
      </trkpt>
      <trkpt lat="48.72687" lon="2.04016">
        <ele>101</ele>
        <time>2020-05-28T08:23:44Z</time>
      </trkpt>
      <trkpt lat="48.72686" lon="2.04045">
        <ele>100</ele>
        <time>2020-05-28T08:23:56Z</time>
      </trkpt>
      <trkpt lat="48.72679" lon="2.04072">
        <ele>100</ele>
        <time>2020-05-28T08:24:07Z</time>
      </trkpt>
      <trkpt lat="48.72679" lon="2.041">
        <ele>99</ele>
        <time>2020-05-28T08:24:26Z</time>
      </trkpt>
      <trkpt lat="48.72696" lon="2.04113">
        <ele>98</ele>
        <time>2020-05-28T08:24:40Z</time>
      </trkpt>
      <trkpt lat="48.72714" lon="2.04123">
        <ele>97</ele>
        <time>2020-05-28T08:24:53Z</time>
      </trkpt>
      <trkpt lat="48.72732" lon="2.04133">
        <ele>97</ele>
        <time>2020-05-28T08:25:06Z</time>
      </trkpt>
      <trkpt lat="48.72748" lon="2.04149">
        <ele>96</ele>
        <time>2020-05-28T08:25:20Z</time>
      </trkpt>
      <trkpt lat="48.72763" lon="2.04164">
        <ele>95</ele>
        <time>2020-05-28T08:25:31Z</time>
      </trkpt>
      <trkpt lat="48.72781" lon="2.04177">
        <ele>96</ele>
        <time>2020-05-28T08:25:43Z</time>
      </trkpt>
      <trkpt lat="48.72797" lon="2.04189">
        <ele>96</ele>
        <time>2020-05-28T08:25:55Z</time>
      </trkpt>
      <trkpt lat="48.72814" lon="2.04203">
        <ele>97</ele>
        <time>2020-05-28T08:26:07Z</time>
      </trkpt>
      <trkpt lat="48.72831" lon="2.04214">
        <ele>98</ele>
        <time>2020-05-28T08:26:19Z</time>
      </trkpt>
      <trkpt lat="48.72847" lon="2.04227">
        <ele>105</ele>
        <time>2020-05-28T08:26:33Z</time>
      </trkpt>
      <trkpt lat="48.72864" lon="2.04235">
        <ele>107</ele>
        <time>2020-05-28T08:28:03Z</time>
      </trkpt>
      <trkpt lat="48.72877" lon="2.04214">
        <ele>108</ele>
        <time>2020-05-28T08:32:32Z</time>
      </trkpt>
      <trkpt lat="48.72875" lon="2.04187">
        <ele>107</ele>
        <time>2020-05-28T08:32:47Z</time>
      </trkpt>
      <trkpt lat="48.72872" lon="2.04159">
        <ele>103</ele>
        <time>2020-05-28T08:33:00Z</time>
      </trkpt>
      <trkpt lat="48.7287" lon="2.04132">
        <ele>103</ele>
        <time>2020-05-28T08:33:13Z</time>
      </trkpt>
      <trkpt lat="48.72871" lon="2.04103">
        <ele>103</ele>
        <time>2020-05-28T08:33:24Z</time>
      </trkpt>
      <trkpt lat="48.72868" lon="2.04074">
        <ele>102</ele>
        <time>2020-05-28T08:33:36Z</time>
      </trkpt>
      <trkpt lat="48.72866" lon="2.04046">
        <ele>102</ele>
        <time>2020-05-28T08:33:50Z</time>
      </trkpt>
      <trkpt lat="48.72866" lon="2.04017">
        <ele>102</ele>
        <time>2020-05-28T08:34:02Z</time>
      </trkpt>
      <trkpt lat="48.72871" lon="2.0399">
        <ele>102</ele>
        <time>2020-05-28T08:34:13Z</time>
      </trkpt>
      <trkpt lat="48.72882" lon="2.03965">
        <ele>103</ele>
        <time>2020-05-28T08:34:26Z</time>
      </trkpt>
      <trkpt lat="48.72893" lon="2.03942">
        <ele>103</ele>
        <time>2020-05-28T08:34:37Z</time>
      </trkpt>
      <trkpt lat="48.72902" lon="2.03917">
        <ele>104</ele>
        <time>2020-05-28T08:34:50Z</time>
      </trkpt>
      <trkpt lat="48.7291" lon="2.03892">
        <ele>102</ele>
        <time>2020-05-28T08:35:05Z</time>
      </trkpt>
      <trkpt lat="48.72916" lon="2.03865">
        <ele>101</ele>
        <time>2020-05-28T08:35:18Z</time>
      </trkpt>
      <trkpt lat="48.72921" lon="2.03837">
        <ele>104</ele>
        <time>2020-05-28T08:35:32Z</time>
      </trkpt>
      <trkpt lat="48.72924" lon="2.03809">
        <ele>108</ele>
        <time>2020-05-28T08:35:44Z</time>
      </trkpt>
      <trkpt lat="48.72925" lon="2.03781">
        <ele>108</ele>
        <time>2020-05-28T08:35:58Z</time>
      </trkpt>
      <trkpt lat="48.72929" lon="2.03751">
        <ele>105</ele>
        <time>2020-05-28T08:36:10Z</time>
      </trkpt>
      <trkpt lat="48.72935" lon="2.03723">
        <ele>109</ele>
        <time>2020-05-28T08:36:21Z</time>
      </trkpt>
      <trkpt lat="48.72939" lon="2.03694">
        <ele>109</ele>
        <time>2020-05-28T08:36:35Z</time>
      </trkpt>
      <trkpt lat="48.72938" lon="2.03665">
        <ele>108</ele>
        <time>2020-05-28T08:36:46Z</time>
      </trkpt>
      <trkpt lat="48.72935" lon="2.03637">
        <ele>109</ele>
        <time>2020-05-28T08:36:57Z</time>
      </trkpt>
      <trkpt lat="48.72931" lon="2.0361">
        <ele>109</ele>
        <time>2020-05-28T08:37:09Z</time>
      </trkpt>
      <trkpt lat="48.72918" lon="2.03589">
        <ele>105</ele>
        <time>2020-05-28T08:37:21Z</time>
      </trkpt>
      <trkpt lat="48.72915" lon="2.03561">
        <ele>102</ele>
        <time>2020-05-28T08:37:33Z</time>
      </trkpt>
      <trkpt lat="48.72914" lon="2.03532">
        <ele>102</ele>
        <time>2020-05-28T08:37:49Z</time>
      </trkpt>
      <trkpt lat="48.72917" lon="2.03504">
        <ele>104</ele>
        <time>2020-05-28T08:38:03Z</time>
      </trkpt>
      <trkpt lat="48.72924" lon="2.03477">
        <ele>108</ele>
        <time>2020-05-28T08:38:17Z</time>
      </trkpt>
      <trkpt lat="48.72927" lon="2.03447">
        <ele>108</ele>
        <time>2020-05-28T08:38:29Z</time>
      </trkpt>
      <trkpt lat="48.72935" lon="2.03421">
        <ele>108</ele>
        <time>2020-05-28T08:38:40Z</time>
      </trkpt>
      <trkpt lat="48.72942" lon="2.03396">
        <ele>108</ele>
        <time>2020-05-28T08:38:50Z</time>
      </trkpt>
      <trkpt lat="48.72944" lon="2.03368">
        <ele>108</ele>
        <time>2020-05-28T08:39:03Z</time>
      </trkpt>
      <trkpt lat="48.7295" lon="2.0334">
        <ele>108</ele>
        <time>2020-05-28T08:39:17Z</time>
      </trkpt>
      <trkpt lat="48.72951" lon="2.03313">
        <ele>108</ele>
        <time>2020-05-28T08:39:31Z</time>
      </trkpt>
      <trkpt lat="48.72939" lon="2.03291">
        <ele>108</ele>
        <time>2020-05-28T08:39:45Z</time>
      </trkpt>
      <trkpt lat="48.72934" lon="2.03264">
        <ele>107</ele>
        <time>2020-05-28T08:39:59Z</time>
      </trkpt>
      <trkpt lat="48.72923" lon="2.03242">
        <ele>106</ele>
        <time>2020-05-28T08:40:11Z</time>
      </trkpt>
      <trkpt lat="48.72918" lon="2.03215">
        <ele>108</ele>
        <time>2020-05-28T08:40:21Z</time>
      </trkpt>
      <trkpt lat="48.72916" lon="2.03187">
        <ele>103</ele>
        <time>2020-05-28T08:40:32Z</time>
      </trkpt>
      <trkpt lat="48.72912" lon="2.0316">
        <ele>103</ele>
        <time>2020-05-28T08:40:46Z</time>
      </trkpt>
      <trkpt lat="48.72913" lon="2.03131">
        <ele>102</ele>
        <time>2020-05-28T08:40:58Z</time>
      </trkpt>
      <trkpt lat="48.72915" lon="2.03103">
        <ele>102</ele>
        <time>2020-05-28T08:41:09Z</time>
      </trkpt>
      <trkpt lat="48.7292" lon="2.03075">
        <ele>106</ele>
        <time>2020-05-28T08:41:22Z</time>
      </trkpt>
      <trkpt lat="48.72925" lon="2.03047">
        <ele>109</ele>
        <time>2020-05-28T08:41:33Z</time>
      </trkpt>
      <trkpt lat="48.72928" lon="2.03019">
        <ele>108</ele>
        <time>2020-05-28T08:41:44Z</time>
      </trkpt>
      <trkpt lat="48.7293" lon="2.0299">
        <ele>107</ele>
        <time>2020-05-28T08:41:57Z</time>
      </trkpt>
      <trkpt lat="48.72929" lon="2.02963">
        <ele>108</ele>
        <time>2020-05-28T08:42:09Z</time>
      </trkpt>
      <trkpt lat="48.72923" lon="2.02935">
        <ele>107</ele>
        <time>2020-05-28T08:42:21Z</time>
      </trkpt>
      <trkpt lat="48.72923" lon="2.02905">
        <ele>106</ele>
        <time>2020-05-28T08:42:32Z</time>
      </trkpt>
      <trkpt lat="48.72925" lon="2.02878">
        <ele>106</ele>
        <time>2020-05-28T08:42:43Z</time>
      </trkpt>
      <trkpt lat="48.72932" lon="2.02851">
        <ele>105</ele>
        <time>2020-05-28T08:42:57Z</time>
      </trkpt>
      <trkpt lat="48.72943" lon="2.02829">
        <ele>104</ele>
        <time>2020-05-28T08:43:10Z</time>
      </trkpt>
      <trkpt lat="48.72949" lon="2.02802">
        <ele>104</ele>
        <time>2020-05-28T08:43:37Z</time>
      </trkpt>
      <trkpt lat="48.72945" lon="2.02775">
        <ele>103</ele>
        <time>2020-05-28T08:43:50Z</time>
      </trkpt>
      <trkpt lat="48.72929" lon="2.02761">
        <ele>102</ele>
        <time>2020-05-28T08:44:02Z</time>
      </trkpt>
      <trkpt lat="48.72913" lon="2.02748">
        <ele>100</ele>
        <time>2020-05-28T08:44:15Z</time>
      </trkpt>
      <trkpt lat="48.72899" lon="2.02731">
        <ele>100</ele>
        <time>2020-05-28T08:44:26Z</time>
      </trkpt>
      <trkpt lat="48.72884" lon="2.02716">
        <ele>100</ele>
        <time>2020-05-28T08:44:38Z</time>
      </trkpt>
      <trkpt lat="48.72868" lon="2.027">
        <ele>100</ele>
        <time>2020-05-28T08:44:51Z</time>
      </trkpt>
      <trkpt lat="48.72853" lon="2.02684">
        <ele>100</ele>
        <time>2020-05-28T08:45:04Z</time>
      </trkpt>
      <trkpt lat="48.72838" lon="2.02669">
        <ele>99</ele>
        <time>2020-05-28T08:45:16Z</time>
      </trkpt>
      <trkpt lat="48.72821" lon="2.02655">
        <ele>100</ele>
        <time>2020-05-28T08:45:29Z</time>
      </trkpt>
      <trkpt lat="48.72806" lon="2.02639">
        <ele>101</ele>
        <time>2020-05-28T08:45:42Z</time>
      </trkpt>
      <trkpt lat="48.72791" lon="2.02623">
        <ele>102</ele>
        <time>2020-05-28T08:45:56Z</time>
      </trkpt>
      <trkpt lat="48.72776" lon="2.02608">
        <ele>102</ele>
        <time>2020-05-28T08:46:09Z</time>
      </trkpt>
      <trkpt lat="48.7276" lon="2.02593">
        <ele>104</ele>
        <time>2020-05-28T08:46:22Z</time>
      </trkpt>
      <trkpt lat="48.72745" lon="2.02578">
        <ele>107</ele>
        <time>2020-05-28T08:46:35Z</time>
      </trkpt>
      <trkpt lat="48.72729" lon="2.02562">
        <ele>109</ele>
        <time>2020-05-28T08:46:50Z</time>
      </trkpt>
      <trkpt lat="48.72717" lon="2.02542">
        <ele>111</ele>
        <time>2020-05-28T08:47:11Z</time>
      </trkpt>
      <trkpt lat="48.727" lon="2.02551">
        <ele>112</ele>
        <time>2020-05-28T08:47:28Z</time>
      </trkpt>
      <trkpt lat="48.72685" lon="2.02568">
        <ele>113</ele>
        <time>2020-05-28T08:47:45Z</time>
      </trkpt>
      <trkpt lat="48.72673" lon="2.02588">
        <ele>114</ele>
        <time>2020-05-28T08:47:58Z</time>
      </trkpt>
      <trkpt lat="48.72659" lon="2.02608">
        <ele>117</ele>
        <time>2020-05-28T08:48:11Z</time>
      </trkpt>
      <trkpt lat="48.72643" lon="2.02624">
        <ele>117</ele>
        <time>2020-05-28T08:48:23Z</time>
      </trkpt>
      <trkpt lat="48.72626" lon="2.02637">
        <ele>118</ele>
        <time>2020-05-28T08:48:36Z</time>
      </trkpt>
      <trkpt lat="48.72609" lon="2.02646">
        <ele>119</ele>
        <time>2020-05-28T08:48:50Z</time>
      </trkpt>
      <trkpt lat="48.72592" lon="2.02657">
        <ele>119</ele>
        <time>2020-05-28T08:49:03Z</time>
      </trkpt>
      <trkpt lat="48.72576" lon="2.0267">
        <ele>121</ele>
        <time>2020-05-28T08:49:19Z</time>
      </trkpt>
      <trkpt lat="48.72559" lon="2.0268">
        <ele>123</ele>
        <time>2020-05-28T08:49:30Z</time>
      </trkpt>
      <trkpt lat="48.72541" lon="2.02691">
        <ele>124</ele>
        <time>2020-05-28T08:49:43Z</time>
      </trkpt>
      <trkpt lat="48.72523" lon="2.02696">
        <ele>125</ele>
        <time>2020-05-28T08:49:58Z</time>
      </trkpt>
      <trkpt lat="48.72505" lon="2.02701">
        <ele>125</ele>
        <time>2020-05-28T08:50:26Z</time>
      </trkpt>
      <trkpt lat="48.72487" lon="2.02707">
        <ele>131</ele>
        <time>2020-05-28T08:50:38Z</time>
      </trkpt>
      <trkpt lat="48.72469" lon="2.02716">
        <ele>132</ele>
        <time>2020-05-28T08:50:52Z</time>
      </trkpt>
      <trkpt lat="48.72451" lon="2.02726">
        <ele>133</ele>
        <time>2020-05-28T08:51:05Z</time>
      </trkpt>
      <trkpt lat="48.72434" lon="2.0274">
        <ele>134</ele>
        <time>2020-05-28T08:51:23Z</time>
      </trkpt>
      <trkpt lat="48.72417" lon="2.02753">
        <ele>136</ele>
        <time>2020-05-28T08:51:34Z</time>
      </trkpt>
      <trkpt lat="48.724" lon="2.02767">
        <ele>140</ele>
        <time>2020-05-28T08:51:45Z</time>
      </trkpt>
      <trkpt lat="48.72384" lon="2.02784">
        <ele>142</ele>
        <time>2020-05-28T08:51:59Z</time>
      </trkpt>
      <trkpt lat="48.72381" lon="2.02812">
        <ele>142</ele>
        <time>2020-05-28T08:52:20Z</time>
      </trkpt>
      <trkpt lat="48.72391" lon="2.02835">
        <ele>140</ele>
        <time>2020-05-28T08:52:37Z</time>
      </trkpt>
      <trkpt lat="48.72406" lon="2.02851">
        <ele>139</ele>
        <time>2020-05-28T08:52:51Z</time>
      </trkpt>
      <trkpt lat="48.72423" lon="2.02866">
        <ele>132</ele>
        <time>2020-05-28T08:53:05Z</time>
      </trkpt>
      <trkpt lat="48.72438" lon="2.02882">
        <ele>132</ele>
        <time>2020-05-28T08:53:20Z</time>
      </trkpt>
      <trkpt lat="48.72449" lon="2.02904">
        <ele>131</ele>
        <time>2020-05-28T08:53:36Z</time>
      </trkpt>
      <trkpt lat="48.72448" lon="2.02934">
        <ele>133</ele>
        <time>2020-05-28T08:53:53Z</time>
      </trkpt>
      <trkpt lat="48.72447" lon="2.02962">
        <ele>134</ele>
        <time>2020-05-28T08:54:07Z</time>
      </trkpt>
      <trkpt lat="48.72448" lon="2.0299">
        <ele>135</ele>
        <time>2020-05-28T08:54:21Z</time>
      </trkpt>
      <trkpt lat="48.72442" lon="2.03019">
        <ele>138</ele>
        <time>2020-05-28T08:54:34Z</time>
      </trkpt>
      <trkpt lat="48.72435" lon="2.03044">
        <ele>139</ele>
        <time>2020-05-28T08:54:47Z</time>
      </trkpt>
      <trkpt lat="48.72432" lon="2.03072">
        <ele>141</ele>
        <time>2020-05-28T08:55:28Z</time>
      </trkpt>
      <trkpt lat="48.72436" lon="2.03099">
        <ele>143</ele>
        <time>2020-05-28T08:55:45Z</time>
      </trkpt>
      <trkpt lat="48.72446" lon="2.03122">
        <ele>142</ele>
        <time>2020-05-28T08:56:02Z</time>
      </trkpt>
      <trkpt lat="48.72455" lon="2.03146">
        <ele>142</ele>
        <time>2020-05-28T08:56:21Z</time>
      </trkpt>
      <trkpt lat="48.72468" lon="2.03167">
        <ele>140</ele>
        <time>2020-05-28T08:56:44Z</time>
      </trkpt>
      <trkpt lat="48.7248" lon="2.03189">
        <ele>141</ele>
        <time>2020-05-28T08:57:02Z</time>
      </trkpt>
      <trkpt lat="48.72491" lon="2.03211">
        <ele>141</ele>
        <time>2020-05-28T08:57:20Z</time>
      </trkpt>
      <trkpt lat="48.72499" lon="2.03236">
        <ele>139</ele>
        <time>2020-05-28T08:57:33Z</time>
      </trkpt>
      <trkpt lat="48.72511" lon="2.03257">
        <ele>134</ele>
        <time>2020-05-28T08:57:47Z</time>
      </trkpt>
      <trkpt lat="48.72515" lon="2.03285">
        <ele>134</ele>
        <time>2020-05-28T08:58:10Z</time>
      </trkpt>
      <trkpt lat="48.72517" lon="2.03313">
        <ele>136</ele>
        <time>2020-05-28T08:58:33Z</time>
      </trkpt>
      <trkpt lat="48.72505" lon="2.03334">
        <ele>143</ele>
        <time>2020-05-28T08:58:58Z</time>
      </trkpt>
      <trkpt lat="48.72486" lon="2.03336">
        <ele>147</ele>
        <time>2020-05-28T08:59:17Z</time>
      </trkpt>
      <trkpt lat="48.72467" lon="2.03337">
        <ele>150</ele>
        <time>2020-05-28T08:59:32Z</time>
      </trkpt>
      <trkpt lat="48.72449" lon="2.03338">
        <ele>152</ele>
        <time>2020-05-28T09:00:55Z</time>
      </trkpt>
      <trkpt lat="48.7243" lon="2.03334">
        <ele>156</ele>
        <time>2020-05-28T09:01:12Z</time>
      </trkpt>
      <trkpt lat="48.72414" lon="2.03324">
        <ele>161</ele>
        <time>2020-05-28T09:01:33Z</time>
      </trkpt>
      <trkpt lat="48.72396" lon="2.0332">
        <ele>162</ele>
        <time>2020-05-28T09:01:50Z</time>
      </trkpt>
      <trkpt lat="48.72384" lon="2.03298">
        <ele>163</ele>
        <time>2020-05-28T09:02:10Z</time>
      </trkpt>
      <trkpt lat="48.72374" lon="2.03273">
        <ele>163</ele>
        <time>2020-05-28T09:02:28Z</time>
      </trkpt>
      <trkpt lat="48.72362" lon="2.03253">
        <ele>165</ele>
        <time>2020-05-28T09:02:44Z</time>
      </trkpt>
      <trkpt lat="48.72351" lon="2.0323">
        <ele>164</ele>
        <time>2020-05-28T09:03:01Z</time>
      </trkpt>
      <trkpt lat="48.72342" lon="2.03206">
        <ele>163</ele>
        <time>2020-05-28T09:03:15Z</time>
      </trkpt>
      <trkpt lat="48.7233" lon="2.03183">
        <ele>169</ele>
        <time>2020-05-28T09:03:28Z</time>
      </trkpt>
      <trkpt lat="48.7232" lon="2.03159">
        <ele>167</ele>
        <time>2020-05-28T09:03:41Z</time>
      </trkpt>
      <trkpt lat="48.72307" lon="2.03139">
        <ele>168</ele>
        <time>2020-05-28T09:04:04Z</time>
      </trkpt>
      <trkpt lat="48.72291" lon="2.03124">
        <ele>168</ele>
        <time>2020-05-28T09:04:21Z</time>
      </trkpt>
      <trkpt lat="48.72275" lon="2.03108">
        <ele>168</ele>
        <time>2020-05-28T09:04:33Z</time>
      </trkpt>
      <trkpt lat="48.72261" lon="2.03089">
        <ele>169</ele>
        <time>2020-05-28T09:04:47Z</time>
      </trkpt>
      <trkpt lat="48.72253" lon="2.03063">
        <ele>167</ele>
        <time>2020-05-28T09:05:02Z</time>
      </trkpt>
      <trkpt lat="48.72241" lon="2.03044">
        <ele>168</ele>
        <time>2020-05-28T09:05:17Z</time>
      </trkpt>
      <trkpt lat="48.72229" lon="2.03022">
        <ele>168</ele>
        <time>2020-05-28T09:05:31Z</time>
      </trkpt>
      <trkpt lat="48.72218" lon="2.02999">
        <ele>167</ele>
        <time>2020-05-28T09:05:42Z</time>
      </trkpt>
      <trkpt lat="48.7221" lon="2.02975">
        <ele>167</ele>
        <time>2020-05-28T09:05:56Z</time>
      </trkpt>
      <trkpt lat="48.72205" lon="2.02948">
        <ele>167</ele>
        <time>2020-05-28T09:06:51Z</time>
      </trkpt>
      <trkpt lat="48.72191" lon="2.02929">
        <ele>167</ele>
        <time>2020-05-28T09:07:06Z</time>
      </trkpt>
      <trkpt lat="48.72173" lon="2.02928">
        <ele>168</ele>
        <time>2020-05-28T09:07:22Z</time>
      </trkpt>
      <trkpt lat="48.72154" lon="2.02933">
        <ele>170</ele>
        <time>2020-05-28T09:07:35Z</time>
      </trkpt>
      <trkpt lat="48.72136" lon="2.02938">
        <ele>170</ele>
        <time>2020-05-28T09:07:47Z</time>
      </trkpt>
      <trkpt lat="48.72119" lon="2.02945">
        <ele>170</ele>
        <time>2020-05-28T09:07:59Z</time>
      </trkpt>
      <trkpt lat="48.721" lon="2.02952">
        <ele>170</ele>
        <time>2020-05-28T09:08:12Z</time>
      </trkpt>
      <trkpt lat="48.72082" lon="2.0296">
        <ele>172</ele>
        <time>2020-05-28T09:08:30Z</time>
      </trkpt>
      <trkpt lat="48.72064" lon="2.02964">
        <ele>172</ele>
        <time>2020-05-28T09:08:51Z</time>
      </trkpt>
      <trkpt lat="48.72045" lon="2.02969">
        <ele>173</ele>
        <time>2020-05-28T09:09:09Z</time>
      </trkpt>
      <trkpt lat="48.72027" lon="2.02973">
        <ele>173</ele>
        <time>2020-05-28T09:09:21Z</time>
      </trkpt>
      <trkpt lat="48.72009" lon="2.02976">
        <ele>174</ele>
        <time>2020-05-28T09:09:34Z</time>
      </trkpt>
      <trkpt lat="48.7199" lon="2.02981">
        <ele>175</ele>
        <time>2020-05-28T09:09:47Z</time>
      </trkpt>
      <trkpt lat="48.71971" lon="2.02985">
        <ele>175</ele>
        <time>2020-05-28T09:10:00Z</time>
      </trkpt>
      <trkpt lat="48.71953" lon="2.02987">
        <ele>175</ele>
        <time>2020-05-28T09:10:13Z</time>
      </trkpt>
      <trkpt lat="48.71934" lon="2.02988">
        <ele>176</ele>
        <time>2020-05-28T09:10:27Z</time>
      </trkpt>
      <trkpt lat="48.71915" lon="2.02992">
        <ele>177</ele>
        <time>2020-05-28T09:10:39Z</time>
      </trkpt>
      <trkpt lat="48.71897" lon="2.02993">
        <ele>176</ele>
        <time>2020-05-28T09:10:51Z</time>
      </trkpt>
      <trkpt lat="48.71877" lon="2.02994">
        <ele>176</ele>
        <time>2020-05-28T09:11:05Z</time>
      </trkpt>
      <trkpt lat="48.71859" lon="2.02997">
        <ele>176</ele>
        <time>2020-05-28T09:11:18Z</time>
      </trkpt>
      <trkpt lat="48.7184" lon="2.03001">
        <ele>177</ele>
        <time>2020-05-28T09:11:29Z</time>
      </trkpt>
      <trkpt lat="48.71822" lon="2.03002">
        <ele>177</ele>
        <time>2020-05-28T09:11:44Z</time>
      </trkpt>
      <trkpt lat="48.71803" lon="2.03002">
        <ele>177</ele>
        <time>2020-05-28T09:12:11Z</time>
      </trkpt>
      <trkpt lat="48.71785" lon="2.03003">
        <ele>176</ele>
        <time>2020-05-28T09:12:25Z</time>
      </trkpt>
      <trkpt lat="48.71767" lon="2.03004">
        <ele>176</ele>
        <time>2020-05-28T09:12:37Z</time>
      </trkpt>
      <trkpt lat="48.71747" lon="2.03006">
        <ele>175</ele>
        <time>2020-05-28T09:12:52Z</time>
      </trkpt>
      <trkpt lat="48.71729" lon="2.0301">
        <ele>176</ele>
        <time>2020-05-28T09:13:06Z</time>
      </trkpt>
      <trkpt lat="48.71711" lon="2.03012">
        <ele>176</ele>
        <time>2020-05-28T09:13:19Z</time>
      </trkpt>
      <trkpt lat="48.71692" lon="2.03012">
        <ele>176</ele>
        <time>2020-05-28T09:13:32Z</time>
      </trkpt>
      <trkpt lat="48.71674" lon="2.03015">
        <ele>175</ele>
        <time>2020-05-28T09:13:44Z</time>
      </trkpt>
      <trkpt lat="48.71656" lon="2.03019">
        <ele>175</ele>
        <time>2020-05-28T09:13:59Z</time>
      </trkpt>
      <trkpt lat="48.71637" lon="2.03019">
        <ele>175</ele>
        <time>2020-05-28T09:14:16Z</time>
      </trkpt>
      <trkpt lat="48.71617" lon="2.03021">
        <ele>175</ele>
        <time>2020-05-28T09:14:27Z</time>
      </trkpt>
      <trkpt lat="48.71599" lon="2.03024">
        <ele>175</ele>
        <time>2020-05-28T09:14:38Z</time>
      </trkpt>
      <trkpt lat="48.7158" lon="2.0303">
        <ele>173</ele>
        <time>2020-05-28T09:14:50Z</time>
      </trkpt>
      <trkpt lat="48.71562" lon="2.03036">
        <ele>172</ele>
        <time>2020-05-28T09:15:02Z</time>
      </trkpt>
      <trkpt lat="48.71544" lon="2.03041">
        <ele>172</ele>
        <time>2020-05-28T09:15:14Z</time>
      </trkpt>
      <trkpt lat="48.71525" lon="2.03045">
        <ele>171</ele>
        <time>2020-05-28T09:15:25Z</time>
      </trkpt>
      <trkpt lat="48.71507" lon="2.0305">
        <ele>170</ele>
        <time>2020-05-28T09:15:40Z</time>
      </trkpt>
      <trkpt lat="48.71487" lon="2.03055">
        <ele>165</ele>
        <time>2020-05-28T09:15:56Z</time>
      </trkpt>
      <trkpt lat="48.7147" lon="2.03063">
        <ele>163</ele>
        <time>2020-05-28T09:16:08Z</time>
      </trkpt>
      <trkpt lat="48.71452" lon="2.03072">
        <ele>162</ele>
        <time>2020-05-28T09:16:20Z</time>
      </trkpt>
      <trkpt lat="48.71433" lon="2.03072">
        <ele>160</ele>
        <time>2020-05-28T09:16:34Z</time>
      </trkpt>
      <trkpt lat="48.71415" lon="2.03079">
        <ele>155</ele>
        <time>2020-05-28T09:16:48Z</time>
      </trkpt>
      <trkpt lat="48.71398" lon="2.03089">
        <ele>149</ele>
        <time>2020-05-28T09:17:01Z</time>
      </trkpt>
      <trkpt lat="48.71392" lon="2.03115">
        <ele>146</ele>
        <time>2020-05-28T09:17:24Z</time>
      </trkpt>
      <trkpt lat="48.71376" lon="2.0313">
        <ele>144</ele>
        <time>2020-05-28T09:17:40Z</time>
      </trkpt>
      <trkpt lat="48.71363" lon="2.03149">
        <ele>142</ele>
        <time>2020-05-28T09:17:55Z</time>
      </trkpt>
      <trkpt lat="48.71347" lon="2.03165">
        <ele>137</ele>
        <time>2020-05-28T09:18:05Z</time>
      </trkpt>
      <trkpt lat="48.71332" lon="2.03182">
        <ele>127</ele>
        <time>2020-05-28T09:18:17Z</time>
      </trkpt>
      <trkpt lat="48.71318" lon="2.032">
        <ele>123</ele>
        <time>2020-05-28T09:18:31Z</time>
      </trkpt>
      <trkpt lat="48.71306" lon="2.03222">
        <ele>122</ele>
        <time>2020-05-28T09:18:43Z</time>
      </trkpt>
      <trkpt lat="48.71293" lon="2.03242">
        <ele>120</ele>
        <time>2020-05-28T09:18:55Z</time>
      </trkpt>
      <trkpt lat="48.71283" lon="2.03266">
        <ele>118</ele>
        <time>2020-05-28T09:19:08Z</time>
      </trkpt>
      <trkpt lat="48.71272" lon="2.03288">
        <ele>117</ele>
        <time>2020-05-28T09:19:21Z</time>
      </trkpt>
      <trkpt lat="48.71268" lon="2.03315">
        <ele>116</ele>
        <time>2020-05-28T09:19:34Z</time>
      </trkpt>
      <trkpt lat="48.71263" lon="2.03344">
        <ele>115</ele>
        <time>2020-05-28T09:19:51Z</time>
      </trkpt>
      <trkpt lat="48.71251" lon="2.03366">
        <ele>117</ele>
        <time>2020-05-28T09:20:04Z</time>
      </trkpt>
      <trkpt lat="48.71234" lon="2.0338">
        <ele>108</ele>
        <time>2020-05-28T09:20:19Z</time>
      </trkpt>
      <trkpt lat="48.71217" lon="2.03386">
        <ele>107</ele>
        <time>2020-05-28T09:20:33Z</time>
      </trkpt>
      <trkpt lat="48.71199" lon="2.03389">
        <ele>106</ele>
        <time>2020-05-28T09:20:49Z</time>
      </trkpt>
      <trkpt lat="48.71181" lon="2.03392">
        <ele>106</ele>
        <time>2020-05-28T09:21:05Z</time>
      </trkpt>
      <trkpt lat="48.71161" lon="2.03393">
        <ele>101</ele>
        <time>2020-05-28T09:21:20Z</time>
      </trkpt>
      <trkpt lat="48.71144" lon="2.03401">
        <ele>100</ele>
        <time>2020-05-28T09:21:33Z</time>
      </trkpt>
      <trkpt lat="48.71126" lon="2.0341">
        <ele>99</ele>
        <time>2020-05-28T09:21:46Z</time>
      </trkpt>
      <trkpt lat="48.71109" lon="2.03423">
        <ele>103</ele>
        <time>2020-05-28T09:22:00Z</time>
      </trkpt>
      <trkpt lat="48.71093" lon="2.03439">
        <ele>103</ele>
        <time>2020-05-28T09:22:13Z</time>
      </trkpt>
      <trkpt lat="48.71079" lon="2.03457">
        <ele>98</ele>
        <time>2020-05-28T09:22:24Z</time>
      </trkpt>
      <trkpt lat="48.71066" lon="2.03476">
        <ele>100</ele>
        <time>2020-05-28T09:22:34Z</time>
      </trkpt>
      <trkpt lat="48.71052" lon="2.03496">
        <ele>99</ele>
        <time>2020-05-28T09:22:45Z</time>
      </trkpt>
      <trkpt lat="48.7104" lon="2.0352">
        <ele>101</ele>
        <time>2020-05-28T09:22:57Z</time>
      </trkpt>
      <trkpt lat="48.71031" lon="2.03543">
        <ele>100</ele>
        <time>2020-05-28T09:23:09Z</time>
      </trkpt>
      <trkpt lat="48.71026" lon="2.03571">
        <ele>99</ele>
        <time>2020-05-28T09:23:22Z</time>
      </trkpt>
      <trkpt lat="48.71021" lon="2.03599">
        <ele>102</ele>
        <time>2020-05-28T09:23:34Z</time>
      </trkpt>
      <trkpt lat="48.71012" lon="2.03624">
        <ele>103</ele>
        <time>2020-05-28T09:23:47Z</time>
      </trkpt>
      <trkpt lat="48.71004" lon="2.0365">
        <ele>101</ele>
        <time>2020-05-28T09:24:01Z</time>
      </trkpt>
      <trkpt lat="48.70995" lon="2.03675">
        <ele>95</ele>
        <time>2020-05-28T09:24:14Z</time>
      </trkpt>
      <trkpt lat="48.70985" lon="2.037">
        <ele>95</ele>
        <time>2020-05-28T09:24:26Z</time>
      </trkpt>
      <trkpt lat="48.70974" lon="2.03724">
        <ele>95</ele>
        <time>2020-05-28T09:24:47Z</time>
      </trkpt>
      <trkpt lat="48.70962" lon="2.03748">
        <ele>94</ele>
        <time>2020-05-28T09:24:59Z</time>
      </trkpt>
      <trkpt lat="48.70952" lon="2.03771">
        <ele>95</ele>
        <time>2020-05-28T09:25:10Z</time>
      </trkpt>
      <trkpt lat="48.70942" lon="2.03793">
        <ele>95</ele>
        <time>2020-05-28T09:25:22Z</time>
      </trkpt>
      <trkpt lat="48.70928" lon="2.03772">
        <ele>93</ele>
        <time>2020-05-28T09:25:36Z</time>
      </trkpt>
      <trkpt lat="48.70915" lon="2.03752">
        <ele>88</ele>
        <time>2020-05-28T09:25:51Z</time>
      </trkpt>
      <trkpt lat="48.7091" lon="2.03724">
        <ele>87</ele>
        <time>2020-05-28T09:26:03Z</time>
      </trkpt>
      <trkpt lat="48.70902" lon="2.03699">
        <ele>87</ele>
        <time>2020-05-28T09:26:15Z</time>
      </trkpt>
      <trkpt lat="48.70888" lon="2.03679">
        <ele>86</ele>
        <time>2020-05-28T09:26:29Z</time>
      </trkpt>
      <trkpt lat="48.7087" lon="2.03675">
        <ele>86</ele>
        <time>2020-05-28T09:26:43Z</time>
      </trkpt>
      <trkpt lat="48.70854" lon="2.03688">
        <ele>85</ele>
        <time>2020-05-28T09:27:06Z</time>
      </trkpt>
      <trkpt lat="48.70837" lon="2.03699">
        <ele>85</ele>
        <time>2020-05-28T09:27:22Z</time>
      </trkpt>
      <trkpt lat="48.7082" lon="2.0371">
        <ele>83</ele>
        <time>2020-05-28T09:27:37Z</time>
      </trkpt>
      <trkpt lat="48.70802" lon="2.03717">
        <ele>83</ele>
        <time>2020-05-28T09:27:52Z</time>
      </trkpt>
      <trkpt lat="48.70784" lon="2.0372">
        <ele>83</ele>
        <time>2020-05-28T09:28:25Z</time>
      </trkpt>
      <trkpt lat="48.70766" lon="2.03723">
        <ele>83</ele>
        <time>2020-05-28T09:28:40Z</time>
      </trkpt>
      <trkpt lat="48.70751" lon="2.03739">
        <ele>82</ele>
        <time>2020-05-28T09:28:59Z</time>
      </trkpt>
      <trkpt lat="48.7074" lon="2.03762">
        <ele>82</ele>
        <time>2020-05-28T09:29:14Z</time>
      </trkpt>
      <trkpt lat="48.70721" lon="2.03761">
        <ele>82</ele>
        <time>2020-05-28T09:29:28Z</time>
      </trkpt>
      <trkpt lat="48.70703" lon="2.03767">
        <ele>81</ele>
        <time>2020-05-28T09:29:41Z</time>
      </trkpt>
      <trkpt lat="48.70683" lon="2.03771">
        <ele>81</ele>
        <time>2020-05-28T09:29:54Z</time>
      </trkpt>
      <trkpt lat="48.70665" lon="2.03775">
        <ele>80</ele>
        <time>2020-05-28T09:30:06Z</time>
      </trkpt>
      <trkpt lat="48.70647" lon="2.03781">
        <ele>80</ele>
        <time>2020-05-28T09:30:20Z</time>
      </trkpt>
      <trkpt lat="48.70631" lon="2.03796">
        <ele>80</ele>
        <time>2020-05-28T09:30:34Z</time>
      </trkpt>
      <trkpt lat="48.70614" lon="2.03785">
        <ele>79</ele>
        <time>2020-05-28T09:30:51Z</time>
      </trkpt>
      <trkpt lat="48.70596" lon="2.03776">
        <ele>79</ele>
        <time>2020-05-28T09:31:04Z</time>
      </trkpt>
      <trkpt lat="48.70578" lon="2.0377">
        <ele>79</ele>
        <time>2020-05-28T09:31:17Z</time>
      </trkpt>
      <trkpt lat="48.70559" lon="2.0377">
        <ele>79</ele>
        <time>2020-05-28T09:31:30Z</time>
      </trkpt>
      <trkpt lat="48.70544" lon="2.03787">
        <ele>79</ele>
        <time>2020-05-28T09:32:06Z</time>
      </trkpt>
      <trkpt lat="48.70547" lon="2.03815">
        <ele>79</ele>
        <time>2020-05-28T09:32:20Z</time>
      </trkpt>
      <trkpt lat="48.70557" lon="2.03838">
        <ele>79</ele>
        <time>2020-05-28T09:32:34Z</time>
      </trkpt>
      <trkpt lat="48.70572" lon="2.03855">
        <ele>79</ele>
        <time>2020-05-28T09:32:49Z</time>
      </trkpt>
      <trkpt lat="48.70585" lon="2.03873">
        <ele>79</ele>
        <time>2020-05-28T09:33:06Z</time>
      </trkpt>
      <trkpt lat="48.706" lon="2.0389">
        <ele>79</ele>
        <time>2020-05-28T09:33:16Z</time>
      </trkpt>
      <trkpt lat="48.70613" lon="2.03909">
        <ele>79</ele>
        <time>2020-05-28T09:33:26Z</time>
      </trkpt>
      <trkpt lat="48.70628" lon="2.03928">
        <ele>80</ele>
        <time>2020-05-28T09:33:38Z</time>
      </trkpt>
      <trkpt lat="48.70642" lon="2.03946">
        <ele>80</ele>
        <time>2020-05-28T09:33:52Z</time>
      </trkpt>
      <trkpt lat="48.70656" lon="2.03963">
        <ele>80</ele>
        <time>2020-05-28T09:34:06Z</time>
      </trkpt>
      <trkpt lat="48.70667" lon="2.03986">
        <ele>80</ele>
        <time>2020-05-28T09:34:20Z</time>
      </trkpt>
      <trkpt lat="48.70669" lon="2.04015">
        <ele>82</ele>
        <time>2020-05-28T09:34:32Z</time>
      </trkpt>
      <trkpt lat="48.70672" lon="2.04042">
        <ele>83</ele>
        <time>2020-05-28T09:34:47Z</time>
      </trkpt>
      <trkpt lat="48.70673" lon="2.0407">
        <ele>83</ele>
        <time>2020-05-28T09:35:01Z</time>
      </trkpt>
      <trkpt lat="48.70673" lon="2.04097">
        <ele>83</ele>
        <time>2020-05-28T09:35:12Z</time>
      </trkpt>
      <trkpt lat="48.70675" lon="2.04126">
        <ele>83</ele>
        <time>2020-05-28T09:35:23Z</time>
      </trkpt>
      <trkpt lat="48.70676" lon="2.04155">
        <ele>82</ele>
        <time>2020-05-28T09:35:55Z</time>
      </trkpt>
      <trkpt lat="48.70678" lon="2.04183">
        <ele>82</ele>
        <time>2020-05-28T09:36:09Z</time>
      </trkpt>
      <trkpt lat="48.7068" lon="2.04211">
        <ele>82</ele>
        <time>2020-05-28T09:36:24Z</time>
      </trkpt>
      <trkpt lat="48.70676" lon="2.04239">
        <ele>81</ele>
        <time>2020-05-28T09:36:39Z</time>
      </trkpt>
      <trkpt lat="48.70675" lon="2.04267">
        <ele>81</ele>
        <time>2020-05-28T09:36:51Z</time>
      </trkpt>
      <trkpt lat="48.70674" lon="2.04295">
        <ele>83</ele>
        <time>2020-05-28T09:37:05Z</time>
      </trkpt>
      <trkpt lat="48.70678" lon="2.04323">
        <ele>82</ele>
        <time>2020-05-28T09:37:23Z</time>
      </trkpt>
      <trkpt lat="48.70681" lon="2.04351">
        <ele>83</ele>
        <time>2020-05-28T09:37:36Z</time>
      </trkpt>
      <trkpt lat="48.70681" lon="2.04379">
        <ele>83</ele>
        <time>2020-05-28T09:37:49Z</time>
      </trkpt>
      <trkpt lat="48.70679" lon="2.04408">
        <ele>82</ele>
        <time>2020-05-28T09:38:11Z</time>
      </trkpt>
      <trkpt lat="48.70695" lon="2.0442">
        <ele>83</ele>
        <time>2020-05-28T09:38:43Z</time>
      </trkpt>
      <trkpt lat="48.70713" lon="2.04424">
        <ele>84</ele>
        <time>2020-05-28T09:38:59Z</time>
      </trkpt>
      <trkpt lat="48.70722" lon="2.04399">
        <ele>84</ele>
        <time>2020-05-28T09:39:14Z</time>
      </trkpt>
    </trkseg>
  </trk>
</gpx>